createdAt,value
2022-12-31T00:00:38.557Z,95.57
2022-12-31T00:03:25.366Z,91.40
2022-12-31T00:05:52.768Z,93.93
2022-12-31T00:08:20.339Z,92.15
2022-12-31T00:10:47.686Z,89.07
2022-12-31T00:13:16.750Z,93.68
2022-12-31T00:15:45.135Z,140.80
2022-12-31T00:18:12.808Z,138.10
2022-12-31T00:20:42.096Z,134.60
2022-12-31T00:23:11.153Z,133.00
2022-12-31T00:25:38.537Z,108.35
2022-12-31T00:28:06.108Z,115.28
2022-12-31T00:30:34.821Z,170.48
2022-12-31T00:33:02.502Z,125.80
2022-12-31T00:35:29.796Z,128.25
2022-12-31T00:37:57.336Z,136.15
2022-12-31T00:40:24.581Z,172.82
2022-12-31T00:42:52.091Z,156.77
2022-12-31T00:45:19.317Z,145.82
2022-12-31T00:47:46.871Z,152.93
2022-12-31T00:50:14.105Z,153.80
2022-12-31T00:52:41.665Z,168.98
2022-12-31T00:55:09.218Z,116.32
2022-12-31T00:57:36.775Z,105.85
2022-12-31T01:00:07.333Z,94.65
2022-12-31T01:02:35.026Z,114.65
2022-12-31T01:05:02.511Z,102.88
2022-12-31T01:07:30.100Z,82.22
2022-12-31T01:09:57.379Z,110.10
2022-12-31T01:12:25.623Z,105.07
2022-12-31T01:14:52.880Z,102.63
2022-12-31T01:17:20.393Z,109.68
2022-12-31T01:19:47.669Z,120.45
2022-12-31T01:22:15.283Z,91.80
2022-12-31T01:24:42.518Z,90.00
2022-12-31T01:27:10.287Z,96.85
2022-12-31T01:29:37.493Z,85.70
2022-12-31T01:32:05.412Z,80.38
2022-12-31T01:34:32.721Z,76.53
2022-12-31T01:37:00.204Z,72.72
2022-12-31T01:39:27.442Z,71.55
2022-12-31T01:41:54.941Z,78.63
2022-12-31T01:44:25.229Z,73.05
2022-12-31T01:47:02.302Z,76.15
2022-12-31T01:49:51.703Z,78.68
2022-12-31T01:52:38.788Z,72.25
2022-12-31T01:55:25.465Z,75.90
2022-12-31T01:57:59.269Z,74.63
2022-12-31T02:00:27.095Z,81.30
2022-12-31T02:02:55.172Z,80.95
2022-12-31T02:06:01.158Z,75.65
2022-12-31T02:08:28.837Z,76.80
2022-12-31T02:10:56.113Z,65.90
2022-12-31T02:13:24.094Z,57.45
2022-12-31T02:16:13.011Z,52.63
2022-12-31T02:19:20.159Z,53.92
2022-12-31T02:22:13.429Z,52.00
2022-12-31T02:25:16.494Z,50.97
2022-12-31T02:28:04.454Z,53.55
2022-12-31T02:30:34.945Z,47.30
2022-12-31T02:33:22.317Z,45.67
2022-12-31T02:36:06.163Z,42.92
2022-12-31T02:38:39.233Z,39.85
2022-12-31T02:41:33.091Z,33.17
2022-12-31T02:44:00.415Z,29.00
2022-12-31T02:46:47.339Z,32.55
2022-12-31T02:49:38.659Z,30.13
2022-12-31T02:52:26.737Z,32.58
2022-12-31T02:55:10.224Z,34.45
2022-12-31T02:57:55.342Z,33.72
2022-12-31T03:00:49.353Z,38.22
2022-12-31T03:03:19.319Z,37.78
2022-12-31T03:05:50.135Z,39.70
2022-12-31T03:08:26.293Z,43.65
2022-12-31T03:10:53.566Z,38.63
2022-12-31T03:13:21.071Z,38.88
2022-12-31T03:15:48.585Z,39.05
2022-12-31T03:18:39.227Z,37.60
2022-12-31T03:21:31.921Z,38.28
2022-12-31T03:24:18.187Z,34.55
2022-12-31T03:26:45.391Z,29.27
2022-12-31T03:29:12.876Z,30.10
2022-12-31T03:31:40.211Z,29.80
2022-12-31T03:34:07.694Z,29.77
2022-12-31T03:36:34.960Z,30.08
2022-12-31T03:39:02.509Z,26.95
2022-12-31T03:41:29.713Z,25.83
2022-12-31T03:43:57.254Z,25.10
2022-12-31T03:46:24.473Z,29.10
2022-12-31T03:48:52.012Z,28.15
2022-12-31T03:51:19.180Z,28.08
2022-12-31T03:53:46.671Z,27.60
2022-12-31T03:56:13.917Z,26.63
2022-12-31T03:58:41.449Z,27.15
2022-12-31T04:01:08.772Z,25.38
2022-12-31T04:03:36.350Z,24.90
2022-12-31T04:06:03.689Z,26.83
2022-12-31T04:08:31.246Z,24.50
2022-12-31T04:10:58.583Z,22.17
2022-12-31T04:13:26.113Z,26.55
2022-12-31T04:15:53.546Z,24.55
2022-12-31T04:18:21.053Z,22.83
2022-12-31T04:20:48.337Z,23.08
2022-12-31T04:23:15.830Z,24.10
2022-12-31T04:25:43.193Z,23.75
2022-12-31T04:28:10.699Z,26.35
2022-12-31T04:30:37.955Z,25.45
2022-12-31T04:33:05.442Z,22.50
2022-12-31T04:35:32.720Z,27.20
2022-12-31T04:38:00.251Z,26.95
2022-12-31T04:40:27.474Z,23.98
2022-12-31T04:42:54.989Z,25.55
2022-12-31T04:45:22.294Z,25.02
2022-12-31T04:47:49.826Z,28.98
2022-12-31T04:50:17.094Z,24.88
2022-12-31T04:52:44.586Z,24.85
2022-12-31T04:55:12.029Z,23.52
2022-12-31T04:57:41.544Z,27.42
2022-12-31T05:00:09.608Z,26.95
2022-12-31T05:02:37.380Z,22.77
2022-12-31T05:05:05.239Z,24.65
2022-12-31T05:07:32.764Z,22.25
2022-12-31T05:09:59.977Z,20.38
2022-12-31T05:12:27.552Z,23.63
2022-12-31T05:14:54.806Z,23.55
2022-12-31T05:17:22.329Z,23.85
2022-12-31T05:19:49.540Z,22.67
2022-12-31T05:22:29.103Z,22.33
2022-12-31T05:25:00.920Z,21.48
2022-12-31T05:27:31.224Z,21.67
2022-12-31T05:29:59.174Z,19.50
2022-12-31T05:32:26.985Z,19.63
2022-12-31T05:34:54.296Z,18.60
2022-12-31T05:37:21.821Z,21.20
2022-12-31T05:39:49.299Z,21.08
2022-12-31T05:42:16.853Z,24.95
2022-12-31T05:44:44.436Z,24.10
2022-12-31T05:47:12.004Z,24.90
2022-12-31T05:49:39.537Z,23.75
2022-12-31T05:52:07.615Z,24.55
2022-12-31T05:54:34.985Z,22.92
2022-12-31T05:57:03.953Z,25.13
2022-12-31T05:59:31.258Z,22.83
2022-12-31T06:01:58.846Z,22.75
2022-12-31T06:04:26.391Z,20.35
2022-12-31T06:06:54.093Z,23.45
2022-12-31T06:09:21.977Z,23.58
2022-12-31T06:11:50.054Z,23.88
2022-12-31T06:14:17.411Z,24.25
2022-12-31T06:16:44.953Z,22.55
2022-12-31T06:19:12.219Z,21.65
2022-12-31T06:21:39.770Z,19.27
2022-12-31T06:24:07.597Z,17.38
2022-12-31T06:26:35.180Z,19.08
2022-12-31T06:29:02.505Z,17.20
2022-12-31T06:31:30.123Z,19.15
2022-12-31T06:33:57.478Z,17.77
2022-12-31T06:36:25.124Z,17.75
2022-12-31T06:38:52.522Z,19.25
2022-12-31T06:41:20.138Z,18.65
2022-12-31T06:43:47.582Z,17.15
2022-12-31T06:46:18.026Z,21.80
2022-12-31T06:48:45.578Z,17.75
2022-12-31T06:51:17.856Z,19.65
2022-12-31T06:53:50.961Z,19.55
2022-12-31T06:56:23.358Z,17.92
2022-12-31T06:58:53.189Z,19.75
2022-12-31T07:01:58.031Z,19.00
2022-12-31T07:04:49.783Z,19.70
2022-12-31T07:07:39.367Z,17.42
2022-12-31T07:10:29.475Z,18.50
2022-12-31T07:13:47.259Z,17.33
2022-12-31T07:16:43.793Z,17.98
2022-12-31T07:19:19.935Z,17.38
2022-12-31T07:21:51.626Z,17.70
2022-12-31T07:24:19.695Z,19.30
2022-12-31T07:27:08.453Z,15.43
2022-12-31T07:30:12.165Z,15.32
2022-12-31T07:33:09.843Z,16.55
2022-12-31T07:36:36.856Z,16.45
2022-12-31T07:39:20.462Z,13.05
2022-12-31T07:42:21.188Z,12.18
2022-12-31T07:45:07.702Z,12.07
2022-12-31T07:47:35.656Z,10.68
2022-12-31T07:50:03.972Z,9.57
2022-12-31T07:52:31.991Z,11.65
2022-12-31T07:54:59.275Z,11.50
2022-12-31T07:57:38.704Z,10.43
2022-12-31T08:00:14.377Z,9.75
2022-12-31T08:03:03.293Z,10.18
2022-12-31T08:05:54.866Z,13.68
2022-12-31T08:08:50.154Z,10.90
2022-12-31T08:11:43.285Z,10.07
2022-12-31T08:14:14.828Z,12.23
2022-12-31T08:16:42.732Z,8.70
2022-12-31T08:19:25.745Z,10.85
2022-12-31T08:22:03.865Z,11.05
2022-12-31T08:25:05.124Z,8.43
2022-12-31T08:28:36.864Z,8.02
2022-12-31T08:31:37.527Z,7.90
2022-12-31T08:34:38.102Z,6.30
2022-12-31T08:37:23.911Z,8.20
2022-12-31T08:40:33.792Z,7.63
2022-12-31T08:43:49.683Z,8.23
2022-12-31T08:46:31.455Z,8.38
2022-12-31T08:48:59.507Z,7.50
2022-12-31T08:51:27.654Z,8.60
2022-12-31T08:53:55.773Z,7.25
2022-12-31T08:56:51.150Z,8.13
2022-12-31T08:59:43.230Z,7.43
2022-12-31T09:02:43.211Z,6.88
2022-12-31T09:05:38.570Z,5.85
2022-12-31T09:08:08.569Z,6.13
2022-12-31T09:10:56.844Z,6.20
2022-12-31T09:13:46.182Z,5.15
2022-12-31T09:16:26.222Z,5.78
2022-12-31T09:18:53.511Z,6.50
2022-12-31T09:21:21.411Z,6.22
2022-12-31T09:23:49.041Z,6.78
2022-12-31T09:26:34.835Z,7.05
2022-12-31T09:29:53.846Z,6.00
2022-12-31T09:33:01.266Z,7.30
2022-12-31T09:36:00.412Z,6.13
2022-12-31T09:38:55.530Z,6.22
2022-12-31T09:42:08.955Z,6.95
2022-12-31T09:45:28.629Z,8.00
2022-12-31T09:48:01.760Z,8.13
2022-12-31T09:50:59.553Z,6.90
2022-12-31T09:53:30.984Z,8.93
2022-12-31T09:56:10.154Z,11.45
2022-12-31T09:58:57.319Z,9.65
2022-12-31T10:01:38.017Z,8.68
2022-12-31T10:04:10.697Z,8.50
2022-12-31T10:07:00.707Z,6.38
2022-12-31T10:09:50.418Z,9.30
2022-12-31T10:13:10.349Z,5.88
2022-12-31T10:16:11.146Z,7.40
2022-12-31T10:18:50.407Z,5.70
2022-12-31T10:21:54.092Z,5.28
2022-12-31T10:25:38.639Z,4.97
2022-12-31T10:28:31.310Z,7.22
2022-12-31T10:31:22.633Z,3.70
2022-12-31T10:34:13.103Z,4.35
2022-12-31T10:37:12.800Z,4.30
2022-12-31T10:40:15.939Z,5.35
2022-12-31T10:43:28.029Z,5.60
2022-12-31T10:46:39.712Z,8.20
2022-12-31T10:49:38.185Z,8.73
2022-12-31T10:52:28.503Z,6.35
2022-12-31T10:55:21.666Z,5.35
2022-12-31T10:58:06.694Z,6.25
2022-12-31T11:01:25.045Z,4.72
2022-12-31T11:04:36.417Z,7.68
2022-12-31T11:07:32.194Z,4.30
2022-12-31T11:10:40.137Z,5.70
2022-12-31T11:13:31.646Z,6.68
2022-12-31T11:16:26.526Z,5.93
2022-12-31T11:19:41.461Z,7.80
2022-12-31T11:22:26.351Z,5.82
2022-12-31T11:25:12.003Z,5.63
2022-12-31T11:28:02.462Z,7.55
2022-12-31T11:30:57.577Z,5.20
2022-12-31T11:33:54.694Z,7.22
2022-12-31T11:37:00.248Z,4.25
2022-12-31T11:40:02.945Z,5.95
2022-12-31T11:42:54.574Z,4.05
2022-12-31T11:46:08.595Z,4.82
2022-12-31T11:48:55.483Z,3.95
2022-12-31T11:51:50.376Z,4.78
2022-12-31T11:54:53.190Z,3.50
2022-12-31T11:57:34.507Z,3.83
2022-12-31T12:00:21.817Z,4.43
2022-12-31T12:03:06.037Z,5.70
2022-12-31T12:05:36.582Z,4.22
2022-12-31T12:08:04.143Z,6.07
2022-12-31T12:10:49.861Z,5.85
2022-12-31T12:13:26.065Z,6.55
2022-12-31T12:16:02.090Z,7.63
2022-12-31T12:18:45.227Z,6.05
2022-12-31T12:21:16.712Z,4.40
2022-12-31T12:23:59.535Z,6.35
2022-12-31T12:26:43.269Z,5.00
2022-12-31T12:29:28.359Z,6.57
2022-12-31T12:32:05.995Z,7.00
2022-12-31T12:34:45.887Z,5.50
2022-12-31T12:37:35.567Z,5.60
2022-12-31T12:40:29.814Z,4.72
2022-12-31T12:42:59.283Z,6.15
2022-12-31T12:45:50.788Z,5.60
2022-12-31T12:48:46.411Z,5.88
2022-12-31T12:51:31.573Z,6.30
2022-12-31T12:55:05.045Z,5.28
2022-12-31T12:58:06.373Z,5.32
2022-12-31T13:00:51.896Z,5.35
2022-12-31T13:04:14.724Z,7.15
2022-12-31T13:07:11.181Z,8.60
2022-12-31T13:10:14.813Z,5.95
2022-12-31T13:16:50.995Z,6.30
2022-12-31T13:19:44.598Z,9.18
2022-12-31T13:22:32.498Z,6.43
2022-12-31T13:25:35.271Z,6.65
2022-12-31T13:28:12.039Z,7.22
2022-12-31T13:30:48.650Z,7.07
2022-12-31T13:33:27.165Z,6.35
2022-12-31T13:36:03.202Z,6.05
2022-12-31T13:38:46.227Z,6.55
2022-12-31T13:41:36.629Z,5.97
2022-12-31T13:44:23.971Z,6.07
2022-12-31T13:47:23.224Z,5.90
2022-12-31T13:50:02.825Z,5.57
2022-12-31T13:52:58.710Z,6.45
2022-12-31T13:55:37.992Z,6.10
2022-12-31T13:58:32.232Z,6.30
2022-12-31T14:01:33.621Z,10.70
2022-12-31T14:04:15.429Z,15.05
2022-12-31T14:06:57.598Z,11.52
2022-12-31T14:09:35.493Z,12.55
2022-12-31T14:12:25.883Z,10.05
2022-12-31T14:15:20.466Z,9.18
2022-12-31T14:17:59.343Z,14.35
2022-12-31T14:20:41.521Z,13.40
2022-12-31T14:23:39.059Z,11.98
2022-12-31T14:26:27.688Z,14.18
2022-12-31T14:29:19.145Z,15.25
2022-12-31T14:31:49.491Z,11.00
2022-12-31T14:35:06.246Z,10.63
2022-12-31T14:38:03.215Z,11.55
2022-12-31T14:41:14.152Z,10.98
2022-12-31T14:44:20.105Z,12.20
2022-12-31T14:47:20.505Z,10.68
2022-12-31T14:50:16.271Z,9.70
2022-12-31T14:52:54.395Z,12.63
2022-12-31T14:55:35.607Z,12.07
2022-12-31T14:58:29.785Z,14.05
2022-12-31T15:01:22.318Z,13.25
2022-12-31T15:03:50.710Z,14.07
2022-12-31T15:06:21.212Z,11.68
2022-12-31T15:09:28.500Z,13.52
2022-12-31T15:12:25.293Z,13.13
2022-12-31T15:15:33.270Z,10.18
2022-12-31T15:18:38.701Z,9.98
2022-12-31T15:21:13.935Z,10.27
2022-12-31T15:23:44.244Z,12.38
2022-12-31T15:26:27.761Z,11.77
2022-12-31T15:29:06.497Z,11.82
2022-12-31T15:31:46.678Z,12.70
2022-12-31T15:34:36.086Z,16.48
2022-12-31T15:37:42.790Z,12.95
2022-12-31T15:40:16.347Z,16.67
2022-12-31T15:43:03.150Z,17.05
2022-12-31T15:45:42.935Z,16.92
2022-12-31T15:48:26.380Z,14.05
2022-12-31T15:51:00.675Z,17.67
2022-12-31T15:53:40.433Z,15.95
2022-12-31T15:56:17.913Z,14.80
2022-12-31T15:58:49.679Z,12.95
2022-12-31T16:01:25.546Z,15.48
2022-12-31T16:04:01.981Z,15.93
2022-12-31T16:06:37.159Z,16.27
2022-12-31T16:09:16.371Z,16.45
2022-12-31T16:11:44.657Z,19.73
2022-12-31T16:14:25.456Z,20.13
2022-12-31T16:17:00.002Z,26.15
2022-12-31T16:19:44.737Z,27.13
2022-12-31T16:22:25.988Z,26.13
2022-12-31T16:27:44.914Z,21.73
2022-12-31T16:30:23.095Z,19.27
2022-12-31T16:32:52.869Z,16.70
2022-12-31T16:35:29.693Z,16.80
2022-12-31T16:38:16.756Z,17.80
2022-12-31T16:41:19.355Z,15.52
2022-12-31T16:43:50.446Z,19.13
2022-12-31T16:46:27.192Z,17.27
2022-12-31T16:49:03.039Z,16.42
2022-12-31T16:51:34.093Z,16.33
2022-12-31T16:54:03.674Z,17.40
2022-12-31T16:56:38.054Z,18.23
2022-12-31T16:59:38.930Z,20.88
2022-12-31T17:02:40.529Z,19.30
2022-12-31T17:05:24.646Z,18.52
2022-12-31T17:07:52.673Z,20.00
2022-12-31T17:10:33.272Z,17.63
2022-12-31T17:15:52.844Z,13.65
2022-12-31T17:18:28.839Z,13.35
2022-12-31T17:21:08.435Z,15.88
2022-12-31T17:23:39.921Z,18.15
2022-12-31T17:26:22.186Z,16.50
2022-12-31T17:28:53.493Z,14.38
2022-12-31T17:31:34.245Z,14.63
2022-12-31T17:34:20.808Z,13.05
2022-12-31T17:37:19.823Z,10.90
2022-12-31T17:39:54.245Z,12.43
2022-12-31T17:42:33.705Z,14.93
2022-12-31T17:45:07.656Z,14.25
2022-12-31T17:47:45.576Z,13.65
2022-12-31T17:50:15.589Z,13.00
2022-12-31T17:52:43.170Z,16.90
2022-12-31T17:55:10.461Z,16.48
2022-12-31T17:57:43.161Z,17.63
2022-12-31T18:00:22.390Z,18.45
2022-12-31T18:02:49.970Z,19.73
2022-12-31T18:05:21.045Z,21.23
2022-12-31T18:07:49.092Z,16.95
2022-12-31T18:10:19.448Z,15.38
2022-12-31T18:12:49.409Z,13.73
2022-12-31T18:15:20.514Z,13.57
2022-12-31T18:17:49.182Z,15.00
2022-12-31T18:20:17.784Z,16.25
2022-12-31T18:22:46.029Z,14.75
2022-12-31T18:25:22.730Z,17.02
2022-12-31T18:27:52.199Z,20.15
2022-12-31T18:30:19.660Z,17.42
2022-12-31T18:32:47.433Z,17.55
2022-12-31T18:35:57.673Z,13.63
2022-12-31T18:38:16.024Z,15.18
2022-12-31T18:40:55.594Z,16.65
2022-12-31T18:43:24.290Z,16.13
2022-12-31T18:45:52.784Z,14.07
2022-12-31T18:48:20.929Z,21.08
2022-12-31T18:50:48.940Z,14.35
2022-12-31T18:53:23.099Z,14.55
2022-12-31T18:55:56.454Z,14.65
2022-12-31T18:58:24.660Z,16.23
2022-12-31T19:00:52.294Z,16.98
2022-12-31T19:03:23.894Z,16.55
2022-12-31T19:05:52.086Z,13.95
2022-12-31T19:08:24.251Z,15.27
2022-12-31T19:10:53.832Z,15.35
2022-12-31T19:13:23.036Z,15.38
2022-12-31T19:15:53.171Z,13.05
2022-12-31T19:18:21.201Z,13.25
2022-12-31T19:20:48.574Z,12.55
2022-12-31T19:23:20.511Z,12.40
2022-12-31T19:25:49.795Z,15.75
2022-12-31T19:28:24.305Z,16.38
2022-12-31T19:30:52.898Z,14.57
2022-12-31T19:33:20.891Z,12.85
2022-12-31T19:35:48.651Z,12.77
2022-12-31T19:38:26.447Z,14.02
2022-12-31T19:40:54.997Z,12.77
2022-12-31T19:43:24.135Z,11.18
2022-12-31T19:45:52.758Z,11.27
2022-12-31T19:48:30.476Z,13.95
2022-12-31T19:50:59.696Z,14.93
2022-12-31T19:53:27.966Z,12.90
2022-12-31T19:55:55.364Z,12.25
2022-12-31T19:58:26.324Z,12.48
2022-12-31T20:01:01.958Z,11.57
2022-12-31T20:03:32.672Z,14.27
2022-12-31T20:06:09.927Z,12.75
2022-12-31T20:08:38.909Z,12.88
2022-12-31T20:11:12.826Z,12.55
2022-12-31T20:13:41.438Z,13.05
2022-12-31T20:16:20.605Z,12.18
2022-12-31T20:18:50.592Z,14.15
2022-12-31T20:21:37.060Z,14.13
2022-12-31T20:24:05.006Z,12.65
2022-12-31T20:26:32.282Z,13.95
2022-12-31T20:28:59.880Z,12.88
2022-12-31T20:31:27.384Z,12.25
2022-12-31T20:33:55.702Z,13.82
2022-12-31T20:36:23.685Z,11.95
2022-12-31T20:38:51.324Z,11.73
2022-12-31T20:41:22.154Z,13.27
2022-12-31T20:43:50.949Z,15.18
2022-12-31T20:46:25.108Z,19.95
2022-12-31T20:48:57.868Z,16.42
2022-12-31T20:51:27.131Z,13.38
2022-12-31T20:54:04.970Z,16.98
2022-12-31T20:56:35.349Z,18.75
2022-12-31T20:59:04.551Z,17.58
2022-12-31T21:01:55.502Z,17.00
2022-12-31T21:04:20.512Z,18.98
2022-12-31T21:06:48.184Z,20.58
2022-12-31T21:09:15.837Z,18.83
2022-12-31T21:12:01.609Z,25.35
2022-12-31T21:14:29.202Z,20.85
2022-12-31T21:16:56.479Z,20.95
2022-12-31T21:19:24.044Z,20.27
2022-12-31T21:21:51.425Z,20.73
2022-12-31T21:24:23.494Z,21.48
2022-12-31T21:26:54.739Z,19.77
2022-12-31T21:29:22.434Z,21.80
2022-12-31T21:31:50.052Z,21.05
2022-12-31T21:34:18.868Z,21.42
2022-12-31T21:36:46.074Z,22.83
2022-12-31T21:39:13.710Z,19.90
2022-12-31T21:41:53.405Z,19.60
2022-12-31T21:44:26.532Z,17.75
2022-12-31T21:47:38.219Z,19.77
2022-12-31T21:50:07.705Z,18.25
2022-12-31T21:52:35.255Z,19.15
2022-12-31T21:55:24.671Z,18.55
2022-12-31T21:58:25.437Z,14.52
2022-12-31T22:00:59.285Z,16.23
2022-12-31T22:03:28.040Z,20.08
2022-12-31T22:06:16.342Z,16.20
2022-12-31T22:08:51.756Z,18.33
2022-12-31T22:11:22.608Z,18.92
2022-12-31T22:13:51.281Z,16.02
2022-12-31T22:16:20.335Z,16.83
2022-12-31T22:18:48.550Z,18.13
2022-12-31T22:21:22.456Z,18.20
2022-12-31T22:23:55.905Z,19.35
2022-12-31T22:26:28.221Z,19.15
2022-12-31T22:28:59.788Z,16.02
2022-12-31T22:31:30.334Z,15.60
2022-12-31T22:33:58.883Z,14.20
2022-12-31T22:36:26.889Z,16.80
2022-12-31T22:38:58.646Z,14.93
2022-12-31T22:41:28.525Z,12.18
2022-12-31T22:44:03.718Z,16.48
2022-12-31T22:46:33.931Z,12.57
2022-12-31T22:49:04.328Z,14.52
2022-12-31T22:51:57.163Z,12.20
2022-12-31T22:54:20.588Z,12.50
2022-12-31T22:56:48.192Z,14.30
2022-12-31T22:59:15.448Z,16.08
2022-12-31T23:01:43.085Z,39.05
2022-12-31T23:04:10.497Z,61.40
2022-12-31T23:06:47.370Z,89.43
2022-12-31T23:09:35.493Z,72.95
2022-12-31T23:12:08.430Z,60.22
2022-12-31T23:14:54.833Z,39.40
2022-12-31T23:17:45.400Z,29.50
2022-12-31T23:20:36.585Z,31.13
2022-12-31T23:23:10.546Z,22.13
2022-12-31T23:25:47.856Z,20.42
2022-12-31T23:28:25.746Z,21.60
2022-12-31T23:30:54.178Z,29.60
2022-12-31T23:33:26.129Z,32.75
2022-12-31T23:36:07.282Z,24.30
2022-12-31T23:38:35.283Z,21.85
2022-12-31T23:41:13.508Z,21.65
2022-12-31T23:43:41.119Z,22.45
2022-12-31T23:46:08.539Z,19.38
2022-12-31T23:48:36.121Z,16.75
2022-12-31T23:51:04.025Z,18.17
2022-12-31T23:53:31.860Z,16.35
2022-12-31T23:56:23.382Z,12.80
2022-12-31T23:58:56.312Z,12.73
